sensor_id;sensor_type;location;lat;lon;timestamp;P1;durP1;ratioP1;P2;durP2;ratioP2
7029;SDS011;3556;53.500;10.176;2023-04-16T00:01:30;47.77;;;26.50;;
7029;SDS011;3556;53.500;10.176;2023-04-16T00:03:55;44.30;;;25.07;;
7029;SDS011;3556;53.500;10.176;2023-04-16T00:06:21;41.50;;;25.33;;
7029;SDS011;3556;53.500;10.176;2023-04-16T00:08:47;45.47;;;25.30;;
7029;SDS011;3556;53.500;10.176;2023-04-16T00:11:13;49.43;;;24.70;;
7029;SDS011;3556;53.500;10.176;2023-04-16T00:13:38;40.90;;;24.93;;
7029;SDS011;3556;53.500;10.176;2023-04-16T00:16:04;50.87;;;26.77;;
7029;SDS011;3556;53.500;10.176;2023-04-16T00:18:30;48.20;;;25.00;;
7029;SDS011;3556;53.500;10.176;2023-04-16T00:20:56;43.33;;;24.90;;
7029;SDS011;3556;53.500;10.176;2023-04-16T00:23:21;41.03;;;24.30;;
7029;SDS011;3556;53.500;10.176;2023-04-16T00:25:49;42.70;;;24.47;;
7029;SDS011;3556;53.500;10.176;2023-04-16T00:28:14;45.40;;;25.50;;
7029;SDS011;3556;53.500;10.176;2023-04-16T00:30:40;41.53;;;24.30;;
7029;SDS011;3556;53.500;10.176;2023-04-16T00:33:06;46.87;;;24.27;;
7029;SDS011;3556;53.500;10.176;2023-04-16T00:35:31;44.17;;;24.30;;
7029;SDS011;3556;53.500;10.176;2023-04-16T00:37:57;44.70;;;24.60;;
7029;SDS011;3556;53.500;10.176;2023-04-16T00:40:25;42.43;;;23.77;;
7029;SDS011;3556;53.500;10.176;2023-04-16T00:42:52;40.80;;;23.43;;
7029;SDS011;3556;53.500;10.176;2023-04-16T00:45:18;44.77;;;23.83;;
7029;SDS011;3556;53.500;10.176;2023-04-16T00:47:44;39.90;;;22.83;;
7029;SDS011;3556;53.500;10.176;2023-04-16T00:50:10;44.80;;;24.03;;
7029;SDS011;3556;53.500;10.176;2023-04-16T00:52:36;49.13;;;23.17;;
7029;SDS011;3556;53.500;10.176;2023-04-16T00:55:02;48.50;;;23.50;;
7029;SDS011;3556;53.500;10.176;2023-04-16T00:57:30;41.67;;;22.30;;
7029;SDS011;3556;53.500;10.176;2023-04-16T00:59:55;36.00;;;22.30;;
7029;SDS011;3556;53.500;10.176;2023-04-16T01:02:22;48.30;;;24.20;;
7029;SDS011;3556;53.500;10.176;2023-04-16T01:04:48;39.60;;;22.37;;
7029;SDS011;3556;53.500;10.176;2023-04-16T01:07:14;41.70;;;22.33;;
7029;SDS011;3556;53.500;10.176;2023-04-16T01:09:40;40.77;;;23.10;;
7029;SDS011;3556;53.500;10.176;2023-04-16T01:12:05;40.03;;;22.57;;
7029;SDS011;3556;53.500;10.176;2023-04-16T01:14:31;36.90;;;22.80;;
7029;SDS011;3556;53.500;10.176;2023-04-16T01:17:00;45.17;;;22.80;;
7029;SDS011;3556;53.500;10.176;2023-04-16T01:19:27;44.57;;;23.73;;
7029;SDS011;3556;53.500;10.176;2023-04-16T01:21:55;38.73;;;21.90;;
7029;SDS011;3556;53.500;10.176;2023-04-16T01:24:21;44.87;;;23.30;;
7029;SDS011;3556;53.500;10.176;2023-04-16T01:26:46;39.67;;;22.47;;
7029;SDS011;3556;53.500;10.176;2023-04-16T01:29:12;41.33;;;22.23;;
7029;SDS011;3556;53.500;10.176;2023-04-16T01:31:37;37.63;;;21.90;;
7029;SDS011;3556;53.500;10.176;2023-04-16T01:34:03;36.43;;;21.70;;
7029;SDS011;3556;53.500;10.176;2023-04-16T01:36:28;40.43;;;21.50;;
7029;SDS011;3556;53.500;10.176;2023-04-16T01:38:54;33.60;;;20.43;;
7029;SDS011;3556;53.500;10.176;2023-04-16T01:41:20;38.40;;;20.97;;
7029;SDS011;3556;53.500;10.176;2023-04-16T01:43:45;47.67;;;22.90;;
7029;SDS011;3556;53.500;10.176;2023-04-16T01:46:13;32.57;;;20.13;;
7029;SDS011;3556;53.500;10.176;2023-04-16T01:48:51;37.43;;;20.67;;
7029;SDS011;3556;53.500;10.176;2023-04-16T01:51:18;36.50;;;20.37;;
7029;SDS011;3556;53.500;10.176;2023-04-16T01:53:44;40.20;;;20.60;;
7029;SDS011;3556;53.500;10.176;2023-04-16T01:56:10;40.53;;;21.10;;
7029;SDS011;3556;53.500;10.176;2023-04-16T01:58:35;36.17;;;19.37;;
7029;SDS011;3556;53.500;10.176;2023-04-16T02:01:01;37.07;;;19.77;;
7029;SDS011;3556;53.500;10.176;2023-04-16T02:03:27;32.37;;;20.30;;
7029;SDS011;3556;53.500;10.176;2023-04-16T02:05:53;32.47;;;20.00;;
7029;SDS011;3556;53.500;10.176;2023-04-16T02:08:18;34.27;;;18.90;;
7029;SDS011;3556;53.500;10.176;2023-04-16T02:10:48;39.93;;;21.27;;
7029;SDS011;3556;53.500;10.176;2023-04-16T02:13:14;34.33;;;21.10;;
7029;SDS011;3556;53.500;10.176;2023-04-16T02:15:46;35.30;;;20.13;;
7029;SDS011;3556;53.500;10.176;2023-04-16T02:18:16;43.53;;;20.07;;
7029;SDS011;3556;53.500;10.176;2023-04-16T02:20:42;36.40;;;19.33;;
7029;SDS011;3556;53.500;10.176;2023-04-16T02:23:10;36.67;;;20.67;;
7029;SDS011;3556;53.500;10.176;2023-04-16T02:25:42;31.97;;;19.50;;
7029;SDS011;3556;53.500;10.176;2023-04-16T02:28:12;31.43;;;19.13;;
7029;SDS011;3556;53.500;10.176;2023-04-16T02:30:39;34.10;;;19.70;;
7029;SDS011;3556;53.500;10.176;2023-04-16T02:33:06;33.70;;;19.57;;
7029;SDS011;3556;53.500;10.176;2023-04-16T02:35:34;31.83;;;18.70;;
7029;SDS011;3556;53.500;10.176;2023-04-16T02:38:01;31.40;;;19.67;;
7029;SDS011;3556;53.500;10.176;2023-04-16T02:40:28;30.63;;;19.30;;
7029;SDS011;3556;53.500;10.176;2023-04-16T02:42:54;31.50;;;19.40;;
7029;SDS011;3556;53.500;10.176;2023-04-16T02:45:20;32.97;;;19.43;;
7029;SDS011;3556;53.500;10.176;2023-04-16T02:47:49;32.73;;;19.10;;
7029;SDS011;3556;53.500;10.176;2023-04-16T02:50:15;36.40;;;20.27;;
7029;SDS011;3556;53.500;10.176;2023-04-16T02:52:41;36.70;;;19.20;;
7029;SDS011;3556;53.500;10.176;2023-04-16T02:55:07;34.43;;;19.70;;
7029;SDS011;3556;53.500;10.176;2023-04-16T02:57:33;33.50;;;18.77;;
7029;SDS011;3556;53.500;10.176;2023-04-16T02:59:59;28.17;;;18.80;;
7029;SDS011;3556;53.500;10.176;2023-04-16T03:02:24;32.63;;;19.43;;
7029;SDS011;3556;53.500;10.176;2023-04-16T03:04:51;36.27;;;19.50;;
7029;SDS011;3556;53.500;10.176;2023-04-16T03:07:19;41.10;;;19.33;;
7029;SDS011;3556;53.500;10.176;2023-04-16T03:09:45;37.90;;;19.80;;
7029;SDS011;3556;53.500;10.176;2023-04-16T03:12:11;36.83;;;19.97;;
7029;SDS011;3556;53.500;10.176;2023-04-16T03:14:36;41.33;;;20.10;;
7029;SDS011;3556;53.500;10.176;2023-04-16T03:17:02;29.67;;;19.37;;
7029;SDS011;3556;53.500;10.176;2023-04-16T03:19:27;35.30;;;19.67;;
7029;SDS011;3556;53.500;10.176;2023-04-16T03:21:53;39.70;;;20.40;;
7029;SDS011;3556;53.500;10.176;2023-04-16T03:24:19;33.20;;;19.83;;
7029;SDS011;3556;53.500;10.176;2023-04-16T03:26:44;32.43;;;19.60;;
7029;SDS011;3556;53.500;10.176;2023-04-16T03:29:10;32.33;;;19.43;;
7029;SDS011;3556;53.500;10.176;2023-04-16T03:31:35;35.97;;;21.10;;
7029;SDS011;3556;53.500;10.176;2023-04-16T03:34:01;31.50;;;18.80;;
7029;SDS011;3556;53.500;10.176;2023-04-16T03:36:26;36.40;;;20.13;;
7029;SDS011;3556;53.500;10.176;2023-04-16T03:38:53;34.60;;;19.43;;
7029;SDS011;3556;53.500;10.176;2023-04-16T03:41:18;31.27;;;19.43;;
7029;SDS011;3556;53.500;10.176;2023-04-16T03:43:44;30.43;;;19.87;;
7029;SDS011;3556;53.500;10.176;2023-04-16T03:46:09;31.80;;;19.30;;
7029;SDS011;3556;53.500;10.176;2023-04-16T03:48:35;28.70;;;19.20;;
7029;SDS011;3556;53.500;10.176;2023-04-16T03:51:01;35.50;;;18.77;;
7029;SDS011;3556;53.500;10.176;2023-04-16T03:53:27;35.33;;;18.87;;
7029;SDS011;3556;53.500;10.176;2023-04-16T03:55:52;32.07;;;18.90;;
7029;SDS011;3556;53.500;10.176;2023-04-16T03:58:18;35.73;;;19.53;;
7029;SDS011;3556;53.500;10.176;2023-04-16T04:00:44;30.77;;;18.87;;
7029;SDS011;3556;53.500;10.176;2023-04-16T04:03:10;28.63;;;18.73;;
7029;SDS011;3556;53.500;10.176;2023-04-16T04:05:40;29.37;;;18.27;;
7029;SDS011;3556;53.500;10.176;2023-04-16T04:08:06;33.30;;;18.80;;
7029;SDS011;3556;53.500;10.176;2023-04-16T04:10:33;27.83;;;18.30;;
7029;SDS011;3556;53.500;10.176;2023-04-16T04:13:00;27.80;;;18.10;;
7029;SDS011;3556;53.500;10.176;2023-04-16T04:15:29;35.97;;;19.63;;
7029;SDS011;3556;53.500;10.176;2023-04-16T04:17:55;41.83;;;18.73;;
7029;SDS011;3556;53.500;10.176;2023-04-16T04:20:21;30.13;;;18.33;;
7029;SDS011;3556;53.500;10.176;2023-04-16T04:22:48;31.30;;;19.37;;
7029;SDS011;3556;53.500;10.176;2023-04-16T04:25:14;32.10;;;19.17;;
7029;SDS011;3556;53.500;10.176;2023-04-16T04:27:40;25.80;;;18.27;;
7029;SDS011;3556;53.500;10.176;2023-04-16T04:30:06;24.83;;;18.10;;
7029;SDS011;3556;53.500;10.176;2023-04-16T04:32:32;31.73;;;19.00;;
7029;SDS011;3556;53.500;10.176;2023-04-16T04:35:01;28.17;;;18.80;;
7029;SDS011;3556;53.500;10.176;2023-04-16T04:37:27;28.30;;;18.70;;
7029;SDS011;3556;53.500;10.176;2023-04-16T04:39:53;31.43;;;18.97;;
7029;SDS011;3556;53.500;10.176;2023-04-16T04:42:19;27.23;;;18.00;;
7029;SDS011;3556;53.500;10.176;2023-04-16T04:44:45;28.33;;;18.50;;
7029;SDS011;3556;53.500;10.176;2023-04-16T04:47:11;30.07;;;19.20;;
7029;SDS011;3556;53.500;10.176;2023-04-16T04:49:37;26.70;;;18.80;;
7029;SDS011;3556;53.500;10.176;2023-04-16T04:52:03;30.13;;;18.70;;
7029;SDS011;3556;53.500;10.176;2023-04-16T04:54:29;30.77;;;19.93;;
7029;SDS011;3556;53.500;10.176;2023-04-16T04:56:55;30.13;;;19.57;;
7029;SDS011;3556;53.500;10.176;2023-04-16T04:59:21;31.13;;;19.90;;
7029;SDS011;3556;53.500;10.176;2023-04-16T05:01:47;32.43;;;19.30;;
7029;SDS011;3556;53.500;10.176;2023-04-16T05:04:13;26.73;;;18.80;;
7029;SDS011;3556;53.500;10.176;2023-04-16T05:06:39;33.43;;;19.87;;
7029;SDS011;3556;53.500;10.176;2023-04-16T05:09:05;33.53;;;19.20;;
7029;SDS011;3556;53.500;10.176;2023-04-16T05:11:35;36.73;;;20.10;;
7029;SDS011;3556;53.500;10.176;2023-04-16T05:14:02;32.40;;;20.10;;
7029;SDS011;3556;53.500;10.176;2023-04-16T05:16:27;29.50;;;19.83;;
7029;SDS011;3556;53.500;10.176;2023-04-16T05:18:53;28.63;;;20.13;;
7029;SDS011;3556;53.500;10.176;2023-04-16T05:21:20;27.77;;;20.63;;
7029;SDS011;3556;53.500;10.176;2023-04-16T05:23:46;32.47;;;19.93;;
7029;SDS011;3556;53.500;10.176;2023-04-16T05:26:11;30.83;;;20.20;;
7029;SDS011;3556;53.500;10.176;2023-04-16T05:28:37;33.27;;;20.30;;
7029;SDS011;3556;53.500;10.176;2023-04-16T05:31:02;33.97;;;21.40;;
7029;SDS011;3556;53.500;10.176;2023-04-16T05:33:28;29.90;;;20.90;;
7029;SDS011;3556;53.500;10.176;2023-04-16T05:35:54;32.83;;;21.93;;
7029;SDS011;3556;53.500;10.176;2023-04-16T05:38:19;39.83;;;22.03;;
7029;SDS011;3556;53.500;10.176;2023-04-16T05:40:45;37.83;;;22.47;;
7029;SDS011;3556;53.500;10.176;2023-04-16T05:43:10;32.13;;;20.93;;
7029;SDS011;3556;53.500;10.176;2023-04-16T05:45:36;40.63;;;22.27;;
7029;SDS011;3556;53.500;10.176;2023-04-16T05:48:05;37.90;;;20.90;;
7029;SDS011;3556;53.500;10.176;2023-04-16T05:50:33;37.83;;;22.00;;
7029;SDS011;3556;53.500;10.176;2023-04-16T05:52:59;34.57;;;21.67;;
7029;SDS011;3556;53.500;10.176;2023-04-16T05:55:25;38.47;;;22.17;;
7029;SDS011;3556;53.500;10.176;2023-04-16T05:57:51;36.97;;;22.87;;
7029;SDS011;3556;53.500;10.176;2023-04-16T06:00:16;34.93;;;22.93;;
7029;SDS011;3556;53.500;10.176;2023-04-16T06:02:42;32.47;;;22.43;;
7029;SDS011;3556;53.500;10.176;2023-04-16T06:05:08;45.43;;;23.40;;
7029;SDS011;3556;53.500;10.176;2023-04-16T06:07:33;34.93;;;22.50;;
7029;SDS011;3556;53.500;10.176;2023-04-16T06:09:59;34.73;;;22.40;;
7029;SDS011;3556;53.500;10.176;2023-04-16T06:12:25;37.43;;;21.87;;
7029;SDS011;3556;53.500;10.176;2023-04-16T06:14:51;37.17;;;23.20;;
7029;SDS011;3556;53.500;10.176;2023-04-16T06:17:16;38.30;;;22.47;;
7029;SDS011;3556;53.500;10.176;2023-04-16T06:19:43;34.93;;;22.70;;
7029;SDS011;3556;53.500;10.176;2023-04-16T06:22:09;37.47;;;23.30;;
7029;SDS011;3556;53.500;10.176;2023-04-16T06:24:35;36.90;;;23.10;;
7029;SDS011;3556;53.500;10.176;2023-04-16T06:27:00;37.90;;;23.30;;
7029;SDS011;3556;53.500;10.176;2023-04-16T06:29:26;35.60;;;20.87;;
7029;SDS011;3556;53.500;10.176;2023-04-16T06:31:52;30.20;;;20.93;;
7029;SDS011;3556;53.500;10.176;2023-04-16T06:34:18;37.60;;;23.07;;
7029;SDS011;3556;53.500;10.176;2023-04-16T06:36:44;39.40;;;23.60;;
7029;SDS011;3556;53.500;10.176;2023-04-16T06:39:10;39.73;;;22.10;;
7029;SDS011;3556;53.500;10.176;2023-04-16T06:41:35;39.80;;;22.80;;
7029;SDS011;3556;53.500;10.176;2023-04-16T06:44:01;38.83;;;22.40;;
7029;SDS011;3556;53.500;10.176;2023-04-16T06:46:27;33.43;;;23.13;;
7029;SDS011;3556;53.500;10.176;2023-04-16T06:48:52;33.90;;;22.13;;
7029;SDS011;3556;53.500;10.176;2023-04-16T06:51:18;35.03;;;22.30;;
7029;SDS011;3556;53.500;10.176;2023-04-16T06:53:44;37.50;;;22.73;;
7029;SDS011;3556;53.500;10.176;2023-04-16T06:56:10;39.60;;;22.50;;
7029;SDS011;3556;53.500;10.176;2023-04-16T06:58:35;34.20;;;21.90;;
7029;SDS011;3556;53.500;10.176;2023-04-16T07:01:01;41.43;;;22.40;;
7029;SDS011;3556;53.500;10.176;2023-04-16T07:03:26;36.73;;;22.70;;
7029;SDS011;3556;53.500;10.176;2023-04-16T07:05:52;31.53;;;21.07;;
7029;SDS011;3556;53.500;10.176;2023-04-16T07:08:18;33.83;;;21.93;;
7029;SDS011;3556;53.500;10.176;2023-04-16T07:10:43;36.90;;;22.20;;
7029;SDS011;3556;53.500;10.176;2023-04-16T07:13:09;37.03;;;23.07;;
7029;SDS011;3556;53.500;10.176;2023-04-16T07:15:34;35.67;;;22.40;;
7029;SDS011;3556;53.500;10.176;2023-04-16T07:18:00;36.73;;;22.10;;
7029;SDS011;3556;53.500;10.176;2023-04-16T07:20:26;38.97;;;22.23;;
7029;SDS011;3556;53.500;10.176;2023-04-16T07:22:51;37.23;;;22.07;;
7029;SDS011;3556;53.500;10.176;2023-04-16T07:25:17;34.73;;;22.40;;
7029;SDS011;3556;53.500;10.176;2023-04-16T07:27:43;39.83;;;21.73;;
7029;SDS011;3556;53.500;10.176;2023-04-16T07:30:08;38.60;;;21.57;;
7029;SDS011;3556;53.500;10.176;2023-04-16T07:32:34;38.63;;;23.00;;
7029;SDS011;3556;53.500;10.176;2023-04-16T07:35:00;35.87;;;21.23;;
7029;SDS011;3556;53.500;10.176;2023-04-16T07:37:27;32.10;;;21.40;;
7029;SDS011;3556;53.500;10.176;2023-04-16T07:39:53;35.73;;;22.23;;
7029;SDS011;3556;53.500;10.176;2023-04-16T07:42:21;38.43;;;22.30;;
7029;SDS011;3556;53.500;10.176;2023-04-16T07:44:47;37.03;;;21.30;;
7029;SDS011;3556;53.500;10.176;2023-04-16T07:47:12;34.73;;;21.17;;
7029;SDS011;3556;53.500;10.176;2023-04-16T07:49:38;38.50;;;22.20;;
7029;SDS011;3556;53.500;10.176;2023-04-16T07:52:03;37.87;;;22.43;;
7029;SDS011;3556;53.500;10.176;2023-04-16T07:54:30;35.57;;;20.23;;
7029;SDS011;3556;53.500;10.176;2023-04-16T07:56:55;30.80;;;21.63;;
7029;SDS011;3556;53.500;10.176;2023-04-16T07:59:21;35.93;;;22.03;;
7029;SDS011;3556;53.500;10.176;2023-04-16T08:01:46;30.63;;;20.73;;
7029;SDS011;3556;53.500;10.176;2023-04-16T08:04:12;30.73;;;19.80;;
7029;SDS011;3556;53.500;10.176;2023-04-16T08:06:38;32.30;;;19.90;;
7029;SDS011;3556;53.500;10.176;2023-04-16T08:09:04;29.97;;;19.50;;
7029;SDS011;3556;53.500;10.176;2023-04-16T08:11:29;30.03;;;19.70;;
7029;SDS011;3556;53.500;10.176;2023-04-16T08:13:55;26.07;;;18.77;;
7029;SDS011;3556;53.500;10.176;2023-04-16T08:16:20;26.80;;;19.23;;
7029;SDS011;3556;53.500;10.176;2023-04-16T08:18:46;29.30;;;20.30;;
7029;SDS011;3556;53.500;10.176;2023-04-16T08:21:12;30.03;;;18.40;;
7029;SDS011;3556;53.500;10.176;2023-04-16T08:23:37;28.67;;;19.93;;
7029;SDS011;3556;53.500;10.176;2023-04-16T08:26:03;25.50;;;18.87;;
7029;SDS011;3556;53.500;10.176;2023-04-16T08:28:28;34.63;;;18.87;;
7029;SDS011;3556;53.500;10.176;2023-04-16T08:30:54;26.30;;;17.87;;
7029;SDS011;3556;53.500;10.176;2023-04-16T08:33:20;28.03;;;19.70;;
7029;SDS011;3556;53.500;10.176;2023-04-16T08:35:45;26.03;;;18.50;;
7029;SDS011;3556;53.500;10.176;2023-04-16T08:38:11;28.93;;;19.67;;
7029;SDS011;3556;53.500;10.176;2023-04-16T08:40:37;26.53;;;18.37;;
7029;SDS011;3556;53.500;10.176;2023-04-16T08:43:04;24.47;;;18.20;;
7029;SDS011;3556;53.500;10.176;2023-04-16T08:45:34;28.50;;;18.40;;
7029;SDS011;3556;53.500;10.176;2023-04-16T08:48:02;25.90;;;19.07;;
7029;SDS011;3556;53.500;10.176;2023-04-16T08:50:29;28.70;;;18.90;;
7029;SDS011;3556;53.500;10.176;2023-04-16T08:52:59;23.43;;;17.53;;
7029;SDS011;3556;53.500;10.176;2023-04-16T08:55:39;32.70;;;19.20;;
7029;SDS011;3556;53.500;10.176;2023-04-16T08:58:13;23.10;;;17.87;;
7029;SDS011;3556;53.500;10.176;2023-04-16T09:00:42;32.57;;;18.80;;
7029;SDS011;3556;53.500;10.176;2023-04-16T09:03:10;24.80;;;17.57;;
7029;SDS011;3556;53.500;10.176;2023-04-16T09:05:36;28.40;;;18.30;;
7029;SDS011;3556;53.500;10.176;2023-04-16T09:08:03;25.13;;;18.50;;
7029;SDS011;3556;53.500;10.176;2023-04-16T09:10:32;26.70;;;18.47;;
7029;SDS011;3556;53.500;10.176;2023-04-16T09:12:58;24.87;;;18.53;;
7029;SDS011;3556;53.500;10.176;2023-04-16T09:15:24;33.93;;;18.80;;
7029;SDS011;3556;53.500;10.176;2023-04-16T09:17:50;23.43;;;18.23;;
7029;SDS011;3556;53.500;10.176;2023-04-16T09:20:17;21.67;;;18.50;;
7029;SDS011;3556;53.500;10.176;2023-04-16T09:22:43;28.47;;;18.47;;
7029;SDS011;3556;53.500;10.176;2023-04-16T09:25:10;21.67;;;16.73;;
7029;SDS011;3556;53.500;10.176;2023-04-16T09:27:36;24.30;;;17.57;;
7029;SDS011;3556;53.500;10.176;2023-04-16T09:30:21;26.30;;;18.70;;
7029;SDS011;3556;53.500;10.176;2023-04-16T09:32:48;31.70;;;17.67;;
7029;SDS011;3556;53.500;10.176;2023-04-16T09:35:15;30.10;;;19.30;;
7029;SDS011;3556;53.500;10.176;2023-04-16T09:37:42;23.13;;;17.73;;
7029;SDS011;3556;53.500;10.176;2023-04-16T09:40:08;24.00;;;17.70;;
7029;SDS011;3556;53.500;10.176;2023-04-16T09:42:34;28.90;;;18.13;;
7029;SDS011;3556;53.500;10.176;2023-04-16T09:45:03;27.00;;;18.60;;
7029;SDS011;3556;53.500;10.176;2023-04-16T09:47:39;25.10;;;18.00;;
7029;SDS011;3556;53.500;10.176;2023-04-16T09:50:13;25.63;;;17.93;;
7029;SDS011;3556;53.500;10.176;2023-04-16T09:52:42;29.33;;;18.30;;
7029;SDS011;3556;53.500;10.176;2023-04-16T09:55:09;24.87;;;16.97;;
7029;SDS011;3556;53.500;10.176;2023-04-16T09:57:36;22.67;;;18.40;;
7029;SDS011;3556;53.500;10.176;2023-04-16T10:00:03;24.77;;;18.10;;
7029;SDS011;3556;53.500;10.176;2023-04-16T10:02:30;21.27;;;16.87;;
7029;SDS011;3556;53.500;10.176;2023-04-16T10:04:58;19.50;;;15.87;;
7029;SDS011;3556;53.500;10.176;2023-04-16T10:07:33;22.53;;;17.00;;
7029;SDS011;3556;53.500;10.176;2023-04-16T10:09:59;24.57;;;16.90;;
7029;SDS011;3556;53.500;10.176;2023-04-16T10:12:25;20.30;;;15.67;;
7029;SDS011;3556;53.500;10.176;2023-04-16T10:14:52;24.57;;;17.63;;
7029;SDS011;3556;53.500;10.176;2023-04-16T10:17:18;25.40;;;15.87;;
7029;SDS011;3556;53.500;10.176;2023-04-16T10:19:45;21.73;;;16.33;;
7029;SDS011;3556;53.500;10.176;2023-04-16T10:22:11;25.90;;;16.60;;
7029;SDS011;3556;53.500;10.176;2023-04-16T10:24:37;24.37;;;16.27;;
7029;SDS011;3556;53.500;10.176;2023-04-16T10:27:05;17.80;;;14.37;;
7029;SDS011;3556;53.500;10.176;2023-04-16T10:29:30;17.07;;;14.53;;
7029;SDS011;3556;53.500;10.176;2023-04-16T10:31:57;19.03;;;14.83;;
7029;SDS011;3556;53.500;10.176;2023-04-16T10:34:25;21.17;;;15.13;;
7029;SDS011;3556;53.500;10.176;2023-04-16T10:36:52;21.33;;;15.63;;
7029;SDS011;3556;53.500;10.176;2023-04-16T10:39:22;18.63;;;14.73;;
7029;SDS011;3556;53.500;10.176;2023-04-16T10:41:48;18.70;;;15.43;;
7029;SDS011;3556;53.500;10.176;2023-04-16T10:44:18;22.27;;;15.70;;
7029;SDS011;3556;53.500;10.176;2023-04-16T10:46:45;19.47;;;15.80;;
7029;SDS011;3556;53.500;10.176;2023-04-16T10:49:16;23.13;;;15.10;;
7029;SDS011;3556;53.500;10.176;2023-04-16T10:51:56;16.57;;;14.33;;
7029;SDS011;3556;53.500;10.176;2023-04-16T10:54:24;19.37;;;13.63;;
7029;SDS011;3556;53.500;10.176;2023-04-16T10:56:57;16.90;;;13.63;;
7029;SDS011;3556;53.500;10.176;2023-04-16T10:59:29;17.17;;;13.67;;
7029;SDS011;3556;53.500;10.176;2023-04-16T11:01:57;14.70;;;13.17;;
7029;SDS011;3556;53.500;10.176;2023-04-16T11:04:26;18.73;;;13.80;;
7029;SDS011;3556;53.500;10.176;2023-04-16T11:12:39;22.20;;;13.70;;
7029;SDS011;3556;53.500;10.176;2023-04-16T11:20:06;17.70;;;12.83;;
7029;SDS011;3556;53.500;10.176;2023-04-16T11:22:35;18.60;;;13.10;;
7029;SDS011;3556;53.500;10.176;2023-04-16T11:25:02;17.83;;;13.50;;
7029;SDS011;3556;53.500;10.176;2023-04-16T11:27:29;19.43;;;14.03;;
7029;SDS011;3556;53.500;10.176;2023-04-16T11:30:03;18.37;;;14.30;;
7029;SDS011;3556;53.500;10.176;2023-04-16T11:32:36;16.37;;;13.23;;
7029;SDS011;3556;53.500;10.176;2023-04-16T11:35:03;20.97;;;15.20;;
7029;SDS011;3556;53.500;10.176;2023-04-16T11:37:37;19.23;;;14.70;;
7029;SDS011;3556;53.500;10.176;2023-04-16T11:40:07;17.23;;;14.30;;
7029;SDS011;3556;53.500;10.176;2023-04-16T11:42:36;19.80;;;15.20;;
7029;SDS011;3556;53.500;10.176;2023-04-16T11:45:04;18.10;;;15.03;;
7029;SDS011;3556;53.500;10.176;2023-04-16T11:47:31;16.97;;;14.47;;
7029;SDS011;3556;53.500;10.176;2023-04-16T11:50:16;18.67;;;15.40;;
7029;SDS011;3556;53.500;10.176;2023-04-16T11:52:44;21.80;;;15.53;;
7029;SDS011;3556;53.500;10.176;2023-04-16T11:55:10;17.03;;;13.67;;
7029;SDS011;3556;53.500;10.176;2023-04-16T11:57:36;20.93;;;14.90;;
7029;SDS011;3556;53.500;10.176;2023-04-16T12:00:02;17.20;;;13.23;;
7029;SDS011;3556;53.500;10.176;2023-04-16T12:02:36;17.83;;;13.53;;
7029;SDS011;3556;53.500;10.176;2023-04-16T12:05:03;16.27;;;14.07;;
7029;SDS011;3556;53.500;10.176;2023-04-16T12:07:29;18.57;;;14.10;;
7029;SDS011;3556;53.500;10.176;2023-04-16T12:10:05;21.93;;;14.53;;
7029;SDS011;3556;53.500;10.176;2023-04-16T12:12:34;15.40;;;13.63;;
7029;SDS011;3556;53.500;10.176;2023-04-16T12:15:00;18.40;;;14.10;;
7029;SDS011;3556;53.500;10.176;2023-04-16T12:17:32;18.77;;;14.00;;
7029;SDS011;3556;53.500;10.176;2023-04-16T12:20:17;21.27;;;14.43;;
7029;SDS011;3556;53.500;10.176;2023-04-16T12:22:43;18.70;;;13.53;;
7029;SDS011;3556;53.500;10.176;2023-04-16T12:25:14;15.97;;;13.73;;
7029;SDS011;3556;53.500;10.176;2023-04-16T12:27:51;18.60;;;15.10;;
7029;SDS011;3556;53.500;10.176;2023-04-16T12:30:20;16.93;;;13.77;;
7029;SDS011;3556;53.500;10.176;2023-04-16T12:32:48;20.33;;;14.20;;
7029;SDS011;3556;53.500;10.176;2023-04-16T12:35:31;19.30;;;13.80;;
7029;SDS011;3556;53.500;10.176;2023-04-16T12:37:58;14.27;;;12.70;;
7029;SDS011;3556;53.500;10.176;2023-04-16T12:40:24;26.07;;;14.07;;
7029;SDS011;3556;53.500;10.176;2023-04-16T12:42:49;20.50;;;14.17;;
7029;SDS011;3556;53.500;10.176;2023-04-16T12:45:15;19.90;;;14.37;;
7029;SDS011;3556;53.500;10.176;2023-04-16T12:47:41;18.17;;;14.20;;
7029;SDS011;3556;53.500;10.176;2023-04-16T12:50:06;25.13;;;14.70;;
7029;SDS011;3556;53.500;10.176;2023-04-16T12:52:32;17.80;;;14.07;;
7029;SDS011;3556;53.500;10.176;2023-04-16T12:54:58;15.83;;;13.60;;
7029;SDS011;3556;53.500;10.176;2023-04-16T12:57:25;17.77;;;13.73;;
7029;SDS011;3556;53.500;10.176;2023-04-16T12:59:52;15.90;;;13.20;;
7029;SDS011;3556;53.500;10.176;2023-04-16T13:02:21;19.23;;;14.17;;
7029;SDS011;3556;53.500;10.176;2023-04-16T13:04:47;21.70;;;14.67;;
7029;SDS011;3556;53.500;10.176;2023-04-16T13:07:13;18.17;;;14.87;;
7029;SDS011;3556;53.500;10.176;2023-04-16T13:09:39;15.87;;;13.07;;
7029;SDS011;3556;53.500;10.176;2023-04-16T13:12:05;17.47;;;14.90;;
7029;SDS011;3556;53.500;10.176;2023-04-16T13:14:31;23.90;;;14.80;;
7029;SDS011;3556;53.500;10.176;2023-04-16T13:16:56;21.00;;;15.43;;
7029;SDS011;3556;53.500;10.176;2023-04-16T13:19:22;15.50;;;13.83;;
7029;SDS011;3556;53.500;10.176;2023-04-16T13:21:48;17.30;;;12.60;;
7029;SDS011;3556;53.500;10.176;2023-04-16T13:24:13;15.67;;;13.23;;
7029;SDS011;3556;53.500;10.176;2023-04-16T13:26:39;17.73;;;14.50;;
7029;SDS011;3556;53.500;10.176;2023-04-16T13:29:05;17.40;;;14.60;;
7029;SDS011;3556;53.500;10.176;2023-04-16T13:31:30;18.37;;;14.20;;
7029;SDS011;3556;53.500;10.176;2023-04-16T13:33:56;16.80;;;14.37;;
7029;SDS011;3556;53.500;10.176;2023-04-16T13:36:22;16.80;;;14.07;;
7029;SDS011;3556;53.500;10.176;2023-04-16T13:38:47;18.37;;;14.33;;
7029;SDS011;3556;53.500;10.176;2023-04-16T13:41:13;17.63;;;13.70;;
7029;SDS011;3556;53.500;10.176;2023-04-16T13:43:38;16.70;;;14.10;;
7029;SDS011;3556;53.500;10.176;2023-04-16T13:46:04;30.63;;;13.73;;
7029;SDS011;3556;53.500;10.176;2023-04-16T13:48:30;23.80;;;14.80;;
7029;SDS011;3556;53.500;10.176;2023-04-16T13:50:56;18.83;;;14.30;;
7029;SDS011;3556;53.500;10.176;2023-04-16T13:53:22;20.23;;;14.87;;
7029;SDS011;3556;53.500;10.176;2023-04-16T13:55:47;15.70;;;13.53;;
7029;SDS011;3556;53.500;10.176;2023-04-16T13:58:16;18.03;;;13.90;;
7029;SDS011;3556;53.500;10.176;2023-04-16T14:00:41;18.30;;;14.83;;
7029;SDS011;3556;53.500;10.176;2023-04-16T14:03:07;18.60;;;14.50;;
7029;SDS011;3556;53.500;10.176;2023-04-16T14:05:33;17.73;;;14.40;;
7029;SDS011;3556;53.500;10.176;2023-04-16T14:07:58;24.33;;;14.90;;
7029;SDS011;3556;53.500;10.176;2023-04-16T14:10:24;18.63;;;15.40;;
7029;SDS011;3556;53.500;10.176;2023-04-16T14:12:50;16.13;;;14.40;;
7029;SDS011;3556;53.500;10.176;2023-04-16T14:15:15;16.67;;;14.67;;
7029;SDS011;3556;53.500;10.176;2023-04-16T14:17:42;20.10;;;14.57;;
7029;SDS011;3556;53.500;10.176;2023-04-16T14:20:09;19.53;;;15.13;;
7029;SDS011;3556;53.500;10.176;2023-04-16T14:22:37;22.03;;;15.10;;
7029;SDS011;3556;53.500;10.176;2023-04-16T14:25:03;18.70;;;14.37;;
7029;SDS011;3556;53.500;10.176;2023-04-16T14:27:29;20.03;;;15.17;;
7029;SDS011;3556;53.500;10.176;2023-04-16T14:29:55;15.67;;;14.07;;
7029;SDS011;3556;53.500;10.176;2023-04-16T14:32:20;21.23;;;15.40;;
7029;SDS011;3556;53.500;10.176;2023-04-16T14:34:46;18.13;;;14.37;;
7029;SDS011;3556;53.500;10.176;2023-04-16T14:37:11;21.30;;;15.43;;
7029;SDS011;3556;53.500;10.176;2023-04-16T14:39:37;29.13;;;15.43;;
7029;SDS011;3556;53.500;10.176;2023-04-16T14:42:03;19.00;;;16.30;;